sensor_id;sensor_type;location;lat;lon;timestamp;P1;durP1;ratioP1;P2;durP2;ratioP2
19830;SDS011;10076;52.008;4.708;2023-12-07T00:01:03;61.67;;;57.17;;
19830;SDS011;10076;52.008;4.708;2023-12-07T00:03:28;60.27;;;55.87;;
19830;SDS011;10076;52.008;4.708;2023-12-07T00:05:53;62.77;;;58.17;;
19830;SDS011;10076;52.008;4.708;2023-12-07T00:08:19;63.60;;;58.93;;
19830;SDS011;10076;52.008;4.708;2023-12-07T00:10:44;63.37;;;58.57;;
19830;SDS011;10076;52.008;4.708;2023-12-07T00:13:09;62.73;;;58.03;;
19830;SDS011;10076;52.008;4.708;2023-12-07T00:15:34;60.03;;;55.47;;
19830;SDS011;10076;52.008;4.708;2023-12-07T00:18:00;60.43;;;55.93;;
19830;SDS011;10076;52.008;4.708;2023-12-07T00:20:25;59.07;;;54.60;;
19830;SDS011;10076;52.008;4.708;2023-12-07T00:22:51;60.13;;;55.57;;
19830;SDS011;10076;52.008;4.708;2023-12-07T00:25:16;58.43;;;53.77;;
19830;SDS011;10076;52.008;4.708;2023-12-07T00:27:41;58.00;;;53.50;;
19830;SDS011;10076;52.008;4.708;2023-12-07T00:30:07;59.93;;;55.30;;
19830;SDS011;10076;52.008;4.708;2023-12-07T00:32:33;61.90;;;57.30;;
19830;SDS011;10076;52.008;4.708;2023-12-07T00:34:59;60.20;;;55.60;;
19830;SDS011;10076;52.008;4.708;2023-12-07T00:37:24;59.63;;;55.20;;
19830;SDS011;10076;52.008;4.708;2023-12-07T00:39:49;61.13;;;56.63;;
19830;SDS011;10076;52.008;4.708;2023-12-07T00:42:15;61.30;;;56.70;;
19830;SDS011;10076;52.008;4.708;2023-12-07T00:44:40;60.63;;;55.93;;
19830;SDS011;10076;52.008;4.708;2023-12-07T00:47:06;59.00;;;54.60;;
19830;SDS011;10076;52.008;4.708;2023-12-07T00:49:32;59.50;;;54.80;;
19830;SDS011;10076;52.008;4.708;2023-12-07T00:51:58;60.13;;;55.37;;
19830;SDS011;10076;52.008;4.708;2023-12-07T00:54:23;59.37;;;54.87;;
19830;SDS011;10076;52.008;4.708;2023-12-07T00:56:48;56.47;;;52.17;;
19830;SDS011;10076;52.008;4.708;2023-12-07T00:59:13;57.87;;;53.47;;
19830;SDS011;10076;52.008;4.708;2023-12-07T01:01:39;59.33;;;54.73;;
19830;SDS011;10076;52.008;4.708;2023-12-07T01:04:05;57.97;;;53.57;;
19830;SDS011;10076;52.008;4.708;2023-12-07T01:06:30;63.13;;;56.77;;
19830;SDS011;10076;52.008;4.708;2023-12-07T01:08:56;61.60;;;57.00;;
19830;SDS011;10076;52.008;4.708;2023-12-07T01:11:22;62.07;;;57.40;;
19830;SDS011;10076;52.008;4.708;2023-12-07T01:13:47;60.00;;;55.23;;
19830;SDS011;10076;52.008;4.708;2023-12-07T01:16:12;62.27;;;57.50;;
19830;SDS011;10076;52.008;4.708;2023-12-07T01:18:38;59.60;;;54.97;;
19830;SDS011;10076;52.008;4.708;2023-12-07T01:21:03;61.47;;;56.77;;
19830;SDS011;10076;52.008;4.708;2023-12-07T01:23:29;59.47;;;54.97;;
19830;SDS011;10076;52.008;4.708;2023-12-07T01:25:54;62.83;;;58.13;;
19830;SDS011;10076;52.008;4.708;2023-12-07T01:28:19;62.50;;;57.70;;
19830;SDS011;10076;52.008;4.708;2023-12-07T01:30:44;60.07;;;55.47;;
19830;SDS011;10076;52.008;4.708;2023-12-07T01:33:10;61.97;;;57.27;;
19830;SDS011;10076;52.008;4.708;2023-12-07T01:35:35;60.53;;;55.87;;
19830;SDS011;10076;52.008;4.708;2023-12-07T01:38:00;60.80;;;56.23;;
19830;SDS011;10076;52.008;4.708;2023-12-07T01:40:25;65.30;;;60.10;;
19830;SDS011;10076;52.008;4.708;2023-12-07T01:42:51;62.50;;;57.90;;
19830;SDS011;10076;52.008;4.708;2023-12-07T01:45:19;62.37;;;57.67;;
19830;SDS011;10076;52.008;4.708;2023-12-07T01:47:45;62.27;;;57.67;;
19830;SDS011;10076;52.008;4.708;2023-12-07T01:50:11;66.97;;;62.07;;
19830;SDS011;10076;52.008;4.708;2023-12-07T01:52:45;66.23;;;61.43;;
19830;SDS011;10076;52.008;4.708;2023-12-07T01:55:12;64.90;;;60.20;;
19830;SDS011;10076;52.008;4.708;2023-12-07T01:57:39;62.10;;;57.50;;
19830;SDS011;10076;52.008;4.708;2023-12-07T02:00:06;65.20;;;60.33;;
19830;SDS011;10076;52.008;4.708;2023-12-07T02:02:32;67.37;;;62.57;;
19830;SDS011;10076;52.008;4.708;2023-12-07T02:04:57;67.87;;;63.07;;
19830;SDS011;10076;52.008;4.708;2023-12-07T02:07:23;64.27;;;59.57;;
19830;SDS011;10076;52.008;4.708;2023-12-07T02:09:48;61.70;;;57.10;;
19830;SDS011;10076;52.008;4.708;2023-12-07T02:12:14;66.37;;;61.47;;
19830;SDS011;10076;52.008;4.708;2023-12-07T02:14:40;66.27;;;61.27;;
19830;SDS011;10076;52.008;4.708;2023-12-07T02:17:14;65.60;;;60.87;;
19830;SDS011;10076;52.008;4.708;2023-12-07T02:22:46;67.80;;;63.00;;
19830;SDS011;10076;52.008;4.708;2023-12-07T02:25:18;67.37;;;62.47;;
19830;SDS011;10076;52.008;4.708;2023-12-07T02:27:48;68.37;;;63.57;;
19830;SDS011;10076;52.008;4.708;2023-12-07T02:30:13;63.73;;;59.17;;
19830;SDS011;10076;52.008;4.708;2023-12-07T02:32:40;69.00;;;64.17;;
19830;SDS011;10076;52.008;4.708;2023-12-07T02:35:06;65.37;;;60.67;;
19830;SDS011;10076;52.008;4.708;2023-12-07T02:37:37;65.40;;;60.60;;
19830;SDS011;10076;52.008;4.708;2023-12-07T02:40:09;64.67;;;59.93;;
19830;SDS011;10076;52.008;4.708;2023-12-07T02:42:37;64.17;;;59.37;;
19830;SDS011;10076;52.008;4.708;2023-12-07T02:45:04;62.20;;;57.43;;
19830;SDS011;10076;52.008;4.708;2023-12-07T02:47:30;63.50;;;58.83;;
19830;SDS011;10076;52.008;4.708;2023-12-07T02:49:55;64.60;;;59.80;;
19830;SDS011;10076;52.008;4.708;2023-12-07T02:52:20;66.53;;;61.73;;
19830;SDS011;10076;52.008;4.708;2023-12-07T02:54:46;68.17;;;63.27;;
19830;SDS011;10076;52.008;4.708;2023-12-07T02:57:11;68.77;;;63.87;;
19830;SDS011;10076;52.008;4.708;2023-12-07T02:59:37;67.33;;;62.50;;
19830;SDS011;10076;52.008;4.708;2023-12-07T03:02:02;69.47;;;64.67;;
19830;SDS011;10076;52.008;4.708;2023-12-07T03:04:28;65.60;;;60.90;;
19830;SDS011;10076;52.008;4.708;2023-12-07T03:06:53;67.77;;;62.93;;
19830;SDS011;10076;52.008;4.708;2023-12-07T03:09:18;63.67;;;58.97;;
19830;SDS011;10076;52.008;4.708;2023-12-07T03:11:44;64.20;;;59.53;;
19830;SDS011;10076;52.008;4.708;2023-12-07T03:14:09;66.60;;;61.80;;
19830;SDS011;10076;52.008;4.708;2023-12-07T03:16:34;61.63;;;57.03;;
19830;SDS011;10076;52.008;4.708;2023-12-07T03:19:00;64.13;;;59.43;;
19830;SDS011;10076;52.008;4.708;2023-12-07T03:21:26;63.50;;;58.80;;
19830;SDS011;10076;52.008;4.708;2023-12-07T03:23:52;63.30;;;58.50;;
19830;SDS011;10076;52.008;4.708;2023-12-07T03:26:17;61.87;;;57.33;;
19830;SDS011;10076;52.008;4.708;2023-12-07T03:28:42;66.23;;;61.43;;
19830;SDS011;10076;52.008;4.708;2023-12-07T03:31:07;66.90;;;61.37;;
19830;SDS011;10076;52.008;4.708;2023-12-07T03:33:33;64.97;;;60.27;;
19830;SDS011;10076;52.008;4.708;2023-12-07T03:35:58;63.50;;;58.80;;
19830;SDS011;10076;52.008;4.708;2023-12-07T03:38:23;64.67;;;59.97;;
19830;SDS011;10076;52.008;4.708;2023-12-07T03:40:48;60.10;;;55.60;;
19830;SDS011;10076;52.008;4.708;2023-12-07T03:43:14;61.93;;;57.20;;
19830;SDS011;10076;52.008;4.708;2023-12-07T03:45:40;61.83;;;57.20;;
19830;SDS011;10076;52.008;4.708;2023-12-07T03:48:06;61.77;;;57.07;;
19830;SDS011;10076;52.008;4.708;2023-12-07T03:50:31;60.43;;;55.73;;
19830;SDS011;10076;52.008;4.708;2023-12-07T03:52:56;62.23;;;57.53;;
19830;SDS011;10076;52.008;4.708;2023-12-07T03:55:22;60.70;;;55.90;;
19830;SDS011;10076;52.008;4.708;2023-12-07T03:57:47;67.27;;;62.47;;
19830;SDS011;10076;52.008;4.708;2023-12-07T04:00:12;62.43;;;57.80;;
19830;SDS011;10076;52.008;4.708;2023-12-07T04:02:38;63.47;;;58.77;;
19830;SDS011;10076;52.008;4.708;2023-12-07T04:05:04;64.90;;;60.00;;
19830;SDS011;10076;52.008;4.708;2023-12-07T04:07:29;59.00;;;54.60;;
19830;SDS011;10076;52.008;4.708;2023-12-07T04:09:55;60.77;;;56.27;;
19830;SDS011;10076;52.008;4.708;2023-12-07T04:12:22;62.53;;;57.93;;
19830;SDS011;10076;52.008;4.708;2023-12-07T04:14:48;60.97;;;56.37;;
19830;SDS011;10076;52.008;4.708;2023-12-07T04:17:13;60.80;;;56.40;;
19830;SDS011;10076;52.008;4.708;2023-12-07T04:19:39;61.73;;;57.13;;
19830;SDS011;10076;52.008;4.708;2023-12-07T04:22:04;62.33;;;57.63;;
19830;SDS011;10076;52.008;4.708;2023-12-07T04:24:29;62.33;;;57.67;;
19830;SDS011;10076;52.008;4.708;2023-12-07T04:26:54;65.37;;;60.57;;
19830;SDS011;10076;52.008;4.708;2023-12-07T04:29:20;61.77;;;57.13;;
19830;SDS011;10076;52.008;4.708;2023-12-07T04:31:45;60.83;;;56.07;;
19830;SDS011;10076;52.008;4.708;2023-12-07T04:34:10;60.43;;;55.40;;
19830;SDS011;10076;52.008;4.708;2023-12-07T04:36:36;58.10;;;53.63;;
19830;SDS011;10076;52.008;4.708;2023-12-07T04:39:01;59.43;;;54.60;;
19830;SDS011;10076;52.008;4.708;2023-12-07T04:41:26;60.27;;;55.43;;
19830;SDS011;10076;52.008;4.708;2023-12-07T04:43:52;58.43;;;53.73;;
19830;SDS011;10076;52.008;4.708;2023-12-07T04:46:17;58.77;;;53.97;;
19830;SDS011;10076;52.008;4.708;2023-12-07T04:48:42;56.17;;;51.67;;
19830;SDS011;10076;52.008;4.708;2023-12-07T04:51:08;55.77;;;50.87;;
19830;SDS011;10076;52.008;4.708;2023-12-07T04:53:33;61.00;;;55.70;;
19830;SDS011;10076;52.008;4.708;2023-12-07T04:55:58;57.87;;;52.97;;
19830;SDS011;10076;52.008;4.708;2023-12-07T04:58:23;54.83;;;50.37;;
19830;SDS011;10076;52.008;4.708;2023-12-07T05:00:49;57.83;;;53.13;;
19830;SDS011;10076;52.008;4.708;2023-12-07T05:03:14;59.23;;;54.33;;
19830;SDS011;10076;52.008;4.708;2023-12-07T05:05:39;61.23;;;56.53;;
19830;SDS011;10076;52.008;4.708;2023-12-07T05:08:05;60.00;;;55.20;;
19830;SDS011;10076;52.008;4.708;2023-12-07T05:10:30;60.57;;;55.77;;
19830;SDS011;10076;52.008;4.708;2023-12-07T05:12:55;58.37;;;53.77;;
19830;SDS011;10076;52.008;4.708;2023-12-07T05:15:22;63.30;;;58.17;;
19830;SDS011;10076;52.008;4.708;2023-12-07T05:17:47;58.87;;;54.07;;
19830;SDS011;10076;52.008;4.708;2023-12-07T05:20:12;56.47;;;51.97;;
19830;SDS011;10076;52.008;4.708;2023-12-07T05:22:38;59.30;;;54.60;;
19830;SDS011;10076;52.008;4.708;2023-12-07T05:25:03;60.37;;;55.63;;
19830;SDS011;10076;52.008;4.708;2023-12-07T05:27:29;60.87;;;55.83;;
19830;SDS011;10076;52.008;4.708;2023-12-07T05:29:55;61.53;;;56.53;;
19830;SDS011;10076;52.008;4.708;2023-12-07T05:32:20;61.73;;;56.87;;
19830;SDS011;10076;52.008;4.708;2023-12-07T05:34:46;63.73;;;58.73;;
19830;SDS011;10076;52.008;4.708;2023-12-07T05:37:11;54.67;;;50.03;;
19830;SDS011;10076;52.008;4.708;2023-12-07T05:39:36;60.23;;;55.20;;
19830;SDS011;10076;52.008;4.708;2023-12-07T05:42:02;62.60;;;57.80;;
19830;SDS011;10076;52.008;4.708;2023-12-07T05:44:29;58.63;;;53.40;;
19830;SDS011;10076;52.008;4.708;2023-12-07T05:46:54;60.60;;;55.47;;
19830;SDS011;10076;52.008;4.708;2023-12-07T05:49:20;57.27;;;52.60;;
19830;SDS011;10076;52.008;4.708;2023-12-07T05:51:47;60.33;;;55.43;;
19830;SDS011;10076;52.008;4.708;2023-12-07T05:54:13;59.23;;;54.33;;
19830;SDS011;10076;52.008;4.708;2023-12-07T05:56:39;60.73;;;55.83;;
19830;SDS011;10076;52.008;4.708;2023-12-07T05:59:05;59.00;;;54.17;;
19830;SDS011;10076;52.008;4.708;2023-12-07T06:01:31;60.40;;;55.43;;
19830;SDS011;10076;52.008;4.708;2023-12-07T06:03:57;56.57;;;52.03;;
19830;SDS011;10076;52.008;4.708;2023-12-07T06:06:22;53.97;;;49.50;;
19830;SDS011;10076;52.008;4.708;2023-12-07T06:08:48;55.30;;;50.67;;
19830;SDS011;10076;52.008;4.708;2023-12-07T06:11:13;53.63;;;49.17;;
19830;SDS011;10076;52.008;4.708;2023-12-07T06:13:38;52.20;;;47.63;;
19830;SDS011;10076;52.008;4.708;2023-12-07T06:16:04;56.63;;;52.03;;
19830;SDS011;10076;52.008;4.708;2023-12-07T06:18:30;54.27;;;49.87;;
19830;SDS011;10076;52.008;4.708;2023-12-07T06:20:55;53.60;;;49.10;;
19830;SDS011;10076;52.008;4.708;2023-12-07T06:23:20;56.40;;;51.70;;
19830;SDS011;10076;52.008;4.708;2023-12-07T06:25:46;54.93;;;50.20;;
19830;SDS011;10076;52.008;4.708;2023-12-07T06:28:12;55.90;;;51.20;;
19830;SDS011;10076;52.008;4.708;2023-12-07T06:30:37;55.27;;;50.67;;
19830;SDS011;10076;52.008;4.708;2023-12-07T06:33:03;58.80;;;53.97;;
19830;SDS011;10076;52.008;4.708;2023-12-07T06:35:28;55.17;;;50.57;;
19830;SDS011;10076;52.008;4.708;2023-12-07T06:37:55;54.20;;;49.70;;
19830;SDS011;10076;52.008;4.708;2023-12-07T06:40:20;58.57;;;53.77;;
19830;SDS011;10076;52.008;4.708;2023-12-07T06:42:46;56.33;;;51.63;;
19830;SDS011;10076;52.008;4.708;2023-12-07T06:45:11;53.80;;;49.17;;
19830;SDS011;10076;52.008;4.708;2023-12-07T06:47:39;49.23;;;44.83;;
19830;SDS011;10076;52.008;4.708;2023-12-07T06:50:05;50.43;;;45.87;;
19830;SDS011;10076;52.008;4.708;2023-12-07T06:52:33;48.07;;;43.67;;
19830;SDS011;10076;52.008;4.708;2023-12-07T06:54:59;49.53;;;44.97;;
19830;SDS011;10076;52.008;4.708;2023-12-07T06:57:24;44.03;;;39.93;;
19830;SDS011;10076;52.008;4.708;2023-12-07T06:59:50;45.43;;;41.23;;
19830;SDS011;10076;52.008;4.708;2023-12-07T07:02:15;43.50;;;39.30;;
19830;SDS011;10076;52.008;4.708;2023-12-07T07:04:40;46.80;;;42.50;;
19830;SDS011;10076;52.008;4.708;2023-12-07T07:07:06;49.67;;;44.97;;
19830;SDS011;10076;52.008;4.708;2023-12-07T07:09:31;49.83;;;45.53;;
19830;SDS011;10076;52.008;4.708;2023-12-07T07:11:57;51.80;;;47.27;;
19830;SDS011;10076;52.008;4.708;2023-12-07T07:14:22;52.50;;;48.00;;
19830;SDS011;10076;52.008;4.708;2023-12-07T07:16:47;53.33;;;48.67;;
19830;SDS011;10076;52.008;4.708;2023-12-07T07:19:13;53.17;;;48.73;;
19830;SDS011;10076;52.008;4.708;2023-12-07T07:21:38;52.53;;;48.13;;
19830;SDS011;10076;52.008;4.708;2023-12-07T07:24:04;53.70;;;49.10;;
19830;SDS011;10076;52.008;4.708;2023-12-07T07:26:29;51.50;;;46.80;;
19830;SDS011;10076;52.008;4.708;2023-12-07T07:28:54;52.13;;;47.17;;
19830;SDS011;10076;52.008;4.708;2023-12-07T07:31:20;50.43;;;46.10;;
19830;SDS011;10076;52.008;4.708;2023-12-07T07:33:46;55.00;;;50.30;;
19830;SDS011;10076;52.008;4.708;2023-12-07T07:36:14;53.20;;;48.70;;
19830;SDS011;10076;52.008;4.708;2023-12-07T07:38:40;47.73;;;43.63;;
19830;SDS011;10076;52.008;4.708;2023-12-07T07:41:05;50.90;;;46.47;;
19830;SDS011;10076;52.008;4.708;2023-12-07T07:43:30;50.97;;;46.50;;
19830;SDS011;10076;52.008;4.708;2023-12-07T07:45:56;52.37;;;47.97;;
19830;SDS011;10076;52.008;4.708;2023-12-07T07:48:21;56.17;;;51.53;;
19830;SDS011;10076;52.008;4.708;2023-12-07T07:50:47;52.50;;;48.03;;
19830;SDS011;10076;52.008;4.708;2023-12-07T07:53:12;56.10;;;51.40;;
19830;SDS011;10076;52.008;4.708;2023-12-07T07:55:38;51.37;;;46.90;;
19830;SDS011;10076;52.008;4.708;2023-12-07T07:58:03;51.30;;;46.37;;
19830;SDS011;10076;52.008;4.708;2023-12-07T08:00:28;50.60;;;46.20;;
19830;SDS011;10076;52.008;4.708;2023-12-07T08:02:53;54.53;;;49.90;;
19830;SDS011;10076;52.008;4.708;2023-12-07T08:05:19;51.50;;;47.10;;
19830;SDS011;10076;52.008;4.708;2023-12-07T08:07:44;51.03;;;46.67;;
19830;SDS011;10076;52.008;4.708;2023-12-07T08:10:09;51.27;;;46.97;;
19830;SDS011;10076;52.008;4.708;2023-12-07T08:12:35;47.07;;;42.83;;
19830;SDS011;10076;52.008;4.708;2023-12-07T08:15:01;48.43;;;43.93;;
19830;SDS011;10076;52.008;4.708;2023-12-07T08:17:26;46.17;;;42.00;;
19830;SDS011;10076;52.008;4.708;2023-12-07T08:19:52;44.27;;;40.20;;
19830;SDS011;10076;52.008;4.708;2023-12-07T08:22:18;45.17;;;40.97;;
19830;SDS011;10076;52.008;4.708;2023-12-07T08:24:43;47.50;;;42.80;;
19830;SDS011;10076;52.008;4.708;2023-12-07T08:27:08;45.17;;;40.60;;
19830;SDS011;10076;52.008;4.708;2023-12-07T08:29:34;46.63;;;42.03;;
19830;SDS011;10076;52.008;4.708;2023-12-07T08:32:00;47.63;;;43.07;;
19830;SDS011;10076;52.008;4.708;2023-12-07T08:34:25;45.47;;;41.37;;
19830;SDS011;10076;52.008;4.708;2023-12-07T08:36:51;43.83;;;39.43;;
19830;SDS011;10076;52.008;4.708;2023-12-07T08:39:16;44.43;;;40.13;;
19830;SDS011;10076;52.008;4.708;2023-12-07T08:41:41;46.20;;;41.80;;
19830;SDS011;10076;52.008;4.708;2023-12-07T08:44:07;43.97;;;39.20;;
19830;SDS011;10076;52.008;4.708;2023-12-07T08:46:32;43.63;;;39.23;;
19830;SDS011;10076;52.008;4.708;2023-12-07T08:48:58;41.17;;;37.23;;
19830;SDS011;10076;52.008;4.708;2023-12-07T08:51:23;43.13;;;39.20;;
19830;SDS011;10076;52.008;4.708;2023-12-07T08:53:49;43.47;;;39.47;;
19830;SDS011;10076;52.008;4.708;2023-12-07T08:56:16;43.83;;;39.43;;
19830;SDS011;10076;52.008;4.708;2023-12-07T08:58:42;45.50;;;41.30;;
19830;SDS011;10076;52.008;4.708;2023-12-07T09:01:07;45.90;;;41.60;;
19830;SDS011;10076;52.008;4.708;2023-12-07T09:03:32;43.33;;;39.30;;
19830;SDS011;10076;52.008;4.708;2023-12-07T09:05:58;43.97;;;39.77;;
19830;SDS011;10076;52.008;4.708;2023-12-07T09:08:25;42.83;;;38.73;;
19830;SDS011;10076;52.008;4.708;2023-12-07T09:10:50;44.30;;;40.13;;
19830;SDS011;10076;52.008;4.708;2023-12-07T09:13:16;40.97;;;37.00;;
19830;SDS011;10076;52.008;4.708;2023-12-07T09:15:42;41.33;;;37.43;;
19830;SDS011;10076;52.008;4.708;2023-12-07T09:18:07;46.17;;;41.90;;
19830;SDS011;10076;52.008;4.708;2023-12-07T09:20:33;43.63;;;39.53;;
19830;SDS011;10076;52.008;4.708;2023-12-07T09:22:58;42.97;;;38.57;;
19830;SDS011;10076;52.008;4.708;2023-12-07T09:25:23;45.20;;;41.00;;
19830;SDS011;10076;52.008;4.708;2023-12-07T09:27:52;43.53;;;38.90;;
19830;SDS011;10076;52.008;4.708;2023-12-07T09:30:18;44.77;;;40.37;;
19830;SDS011;10076;52.008;4.708;2023-12-07T09:32:43;42.70;;;38.50;;
19830;SDS011;10076;52.008;4.708;2023-12-07T09:35:09;45.00;;;40.80;;
19830;SDS011;10076;52.008;4.708;2023-12-07T09:37:44;50.70;;;43.87;;
19830;SDS011;10076;52.008;4.708;2023-12-07T09:42:46;46.70;;;42.43;;
19830;SDS011;10076;52.008;4.708;2023-12-07T09:45:12;53.10;;;48.10;;
19830;SDS011;10076;52.008;4.708;2023-12-07T09:47:39;49.63;;;44.33;;
19830;SDS011;10076;52.008;4.708;2023-12-07T09:50:05;47.77;;;43.07;;
19830;SDS011;10076;52.008;4.708;2023-12-07T09:52:32;47.80;;;43.10;;
19830;SDS011;10076;52.008;4.708;2023-12-07T09:54:57;44.57;;;39.97;;
19830;SDS011;10076;52.008;4.708;2023-12-07T09:57:24;46.90;;;42.20;;
19830;SDS011;10076;52.008;4.708;2023-12-07T09:59:49;45.93;;;41.43;;
19830;SDS011;10076;52.008;4.708;2023-12-07T10:02:14;47.90;;;43.27;;
19830;SDS011;10076;52.008;4.708;2023-12-07T10:04:40;48.00;;;43.57;;
19830;SDS011;10076;52.008;4.708;2023-12-07T10:07:06;51.07;;;46.03;;
19830;SDS011;10076;52.008;4.708;2023-12-07T10:09:34;48.13;;;43.67;;
19830;SDS011;10076;52.008;4.708;2023-12-07T10:12:08;50.07;;;45.37;;
19830;SDS011;10076;52.008;4.708;2023-12-07T10:14:33;49.87;;;45.17;;
19830;SDS011;10076;52.008;4.708;2023-12-07T10:16:59;50.77;;;45.43;;
19830;SDS011;10076;52.008;4.708;2023-12-07T10:19:25;47.97;;;43.03;;
19830;SDS011;10076;52.008;4.708;2023-12-07T10:21:52;47.30;;;42.83;;
19830;SDS011;10076;52.008;4.708;2023-12-07T10:24:18;49.40;;;44.53;;
19830;SDS011;10076;52.008;4.708;2023-12-07T10:26:45;49.43;;;44.73;;
19830;SDS011;10076;52.008;4.708;2023-12-07T10:29:11;48.73;;;44.23;;
19830;SDS011;10076;52.008;4.708;2023-12-07T10:31:37;48.03;;;43.33;;
19830;SDS011;10076;52.008;4.708;2023-12-07T10:34:02;50.67;;;45.77;;
19830;SDS011;10076;52.008;4.708;2023-12-07T10:36:29;47.67;;;42.87;;
19830;SDS011;10076;52.008;4.708;2023-12-07T10:38:54;47.83;;;43.03;;
19830;SDS011;10076;52.008;4.708;2023-12-07T10:41:20;52.30;;;47.27;;
19830;SDS011;10076;52.008;4.708;2023-12-07T10:43:59;56.03;;;50.83;;
19830;SDS011;10076;52.008;4.708;2023-12-07T10:46:26;53.63;;;48.63;;
19830;SDS011;10076;52.008;4.708;2023-12-07T10:48:58;60.27;;;54.10;;
19830;SDS011;10076;52.008;4.708;2023-12-07T10:51:41;51.53;;;46.63;;
19830;SDS011;10076;52.008;4.708;2023-12-07T10:54:08;50.40;;;45.33;;
19830;SDS011;10076;52.008;4.708;2023-12-07T10:56:39;50.87;;;45.77;;
19830;SDS011;10076;52.008;4.708;2023-12-07T10:59:12;51.43;;;46.53;;
19830;SDS011;10076;52.008;4.708;2023-12-07T11:01:39;52.00;;;47.30;;
19830;SDS011;10076;52.008;4.708;2023-12-07T11:04:05;51.20;;;46.37;;
19830;SDS011;10076;52.008;4.708;2023-12-07T11:06:32;50.00;;;44.83;;
19830;SDS011;10076;52.008;4.708;2023-12-07T11:08:59;48.63;;;43.73;;
19830;SDS011;10076;52.008;4.708;2023-12-07T11:11:31;52.40;;;47.13;;
19830;SDS011;10076;52.008;4.708;2023-12-07T11:14:05;52.63;;;47.93;;
19830;SDS011;10076;52.008;4.708;2023-12-07T11:16:32;56.43;;;51.13;;
19830;SDS011;10076;52.008;4.708;2023-12-07T11:19:00;52.67;;;47.67;;
19830;SDS011;10076;52.008;4.708;2023-12-07T11:21:25;53.27;;;48.40;;
19830;SDS011;10076;52.008;4.708;2023-12-07T11:23:52;54.03;;;49.13;;
19830;SDS011;10076;52.008;4.708;2023-12-07T11:26:19;54.47;;;49.50;;
19830;SDS011;10076;52.008;4.708;2023-12-07T11:28:47;51.47;;;46.67;;
19830;SDS011;10076;52.008;4.708;2023-12-07T11:31:13;55.30;;;49.67;;
19830;SDS011;10076;52.008;4.708;2023-12-07T11:33:38;54.27;;;49.47;;
19830;SDS011;10076;52.008;4.708;2023-12-07T11:38:32;54.80;;;49.93;;
19830;SDS011;10076;52.008;4.708;2023-12-07T11:40:59;54.47;;;49.40;;
19830;SDS011;10076;52.008;4.708;2023-12-07T11:43:36;55.27;;;49.97;;
19830;SDS011;10076;52.008;4.708;2023-12-07T11:46:05;57.87;;;53.03;;
19830;SDS011;10076;52.008;4.708;2023-12-07T11:48:32;62.13;;;56.63;;
19830;SDS011;10076;52.008;4.708;2023-12-07T11:53:23;55.70;;;50.77;;
19830;SDS011;10076;52.008;4.708;2023-12-07T11:55:50;56.73;;;51.73;;
19830;SDS011;10076;52.008;4.708;2023-12-07T11:58:16;53.73;;;48.83;;
19830;SDS011;10076;52.008;4.708;2023-12-07T12:00:41;57.73;;;52.83;;
19830;SDS011;10076;52.008;4.708;2023-12-07T12:03:09;56.90;;;51.70;;
19830;SDS011;10076;52.008;4.708;2023-12-07T12:05:35;55.00;;;50.07;;
19830;SDS011;10076;52.008;4.708;2023-12-07T12:08:00;59.10;;;53.23;;
19830;SDS011;10076;52.008;4.708;2023-12-07T12:10:25;58.20;;;53.20;;
19830;SDS011;10076;52.008;4.708;2023-12-07T12:12:53;58.20;;;53.20;;
19830;SDS011;10076;52.008;4.708;2023-12-07T12:15:18;56.43;;;51.30;;
19830;SDS011;10076;52.008;4.708;2023-12-07T12:17:45;56.93;;;52.07;;
19830;SDS011;10076;52.008;4.708;2023-12-07T12:20:10;59.53;;;54.40;;
19830;SDS011;10076;52.008;4.708;2023-12-07T12:22:42;62.33;;;56.83;;
19830;SDS011;10076;52.008;4.708;2023-12-07T12:25:07;59.90;;;54.80;;
19830;SDS011;10076;52.008;4.708;2023-12-07T12:27:33;60.10;;;55.20;;
19830;SDS011;10076;52.008;4.708;2023-12-07T12:29:58;54.60;;;49.90;;
19830;SDS011;10076;52.008;4.708;2023-12-07T12:32:25;57.87;;;52.67;;
19830;SDS011;10076;52.008;4.708;2023-12-07T12:34:53;57.13;;;52.23;;
19830;SDS011;10076;52.008;4.708;2023-12-07T12:37:19;58.87;;;53.77;;
19830;SDS011;10076;52.008;4.708;2023-12-07T12:39:44;62.07;;;56.53;;
19830;SDS011;10076;52.008;4.708;2023-12-07T12:42:10;65.80;;;60.47;;
19830;SDS011;10076;52.008;4.708;2023-12-07T12:44:36;65.87;;;60.47;;
19830;SDS011;10076;52.008;4.708;2023-12-07T12:47:06;62.93;;;57.83;;
19830;SDS011;10076;52.008;4.708;2023-12-07T12:49:38;65.00;;;59.67;;
19830;SDS011;10076;52.008;4.708;2023-12-07T12:52:14;66.20;;;61.00;;
19830;SDS011;10076;52.008;4.708;2023-12-07T12:54:43;69.87;;;64.57;;
19830;SDS011;10076;52.008;4.708;2023-12-07T12:57:09;72.10;;;66.50;;
19830;SDS011;10076;52.008;4.708;2023-12-07T12:59:35;71.07;;;65.50;;
19830;SDS011;10076;52.008;4.708;2023-12-07T13:02:00;66.80;;;61.63;;
19830;SDS011;10076;52.008;4.708;2023-12-07T13:04:29;66.20;;;61.00;;
19830;SDS011;10076;52.008;4.708;2023-12-07T13:06:55;64.87;;;59.67;;
19830;SDS011;10076;52.008;4.708;2023-12-07T13:09:20;69.17;;;63.70;;
19830;SDS011;10076;52.008;4.708;2023-12-07T13:11:46;67.07;;;61.73;;
19830;SDS011;10076;52.008;4.708;2023-12-07T13:14:12;73.60;;;67.33;;
19830;SDS011;10076;52.008;4.708;2023-12-07T13:16:37;68.97;;;63.67;;
19830;SDS011;10076;52.008;4.708;2023-12-07T13:19:03;69.37;;;64.17;;
19830;SDS011;10076;52.008;4.708;2023-12-07T13:21:28;68.67;;;62.80;;
19830;SDS011;10076;52.008;4.708;2023-12-07T13:23:53;66.57;;;61.33;;
19830;SDS011;10076;52.008;4.708;2023-12-07T13:26:19;65.17;;;59.70;;
19830;SDS011;10076;52.008;4.708;2023-12-07T13:28:48;65.93;;;60.73;;
19830;SDS011;10076;52.008;4.708;2023-12-07T13:31:13;65.60;;;60.30;;
19830;SDS011;10076;52.008;4.708;2023-12-07T13:33:39;68.63;;;62.70;;
19830;SDS011;10076;52.008;4.708;2023-12-07T13:36:05;64.27;;;59.23;;
19830;SDS011;10076;52.008;4.708;2023-12-07T13:38:31;65.63;;;60.43;;
19830;SDS011;10076;52.008;4.708;2023-12-07T13:40:56;69.67;;;62.53;;
19830;SDS011;10076;52.008;4.708;2023-12-07T13:43:22;66.97;;;61.67;;
19830;SDS011;10076;52.008;4.708;2023-12-07T13:45:49;67.33;;;62.23;;
19830;SDS011;10076;52.008;4.708;2023-12-07T13:48:14;65.67;;;60.27;;
19830;SDS011;10076;52.008;4.708;2023-12-07T13:50:40;66.50;;;61.20;;
19830;SDS011;10076;52.008;4.708;2023-12-07T13:53:06;70.67;;;65.17;;
19830;SDS011;10076;52.008;4.708;2023-12-07T13:55:35;73.23;;;67.27;;
19830;SDS011;10076;52.008;4.708;2023-12-07T13:58:02;67.30;;;61.90;;
19830;SDS011;10076;52.008;4.708;2023-12-07T14:00:27;69.63;;;64.07;;
19830;SDS011;10076;52.008;4.708;2023-12-07T14:02:53;70.30;;;64.80;;
19830;SDS011;10076;52.008;4.708;2023-12-07T14:05:18;66.43;;;61.13;;
19830;SDS011;10076;52.008;4.708;2023-12-07T14:07:44;62.47;;;57.40;;
19830;SDS011;10076;52.008;4.708;2023-12-07T14:10:10;63.00;;;57.97;;
19830;SDS011;10076;52.008;4.708;2023-12-07T14:12:36;60.83;;;55.87;;
19830;SDS011;10076;52.008;4.708;2023-12-07T14:15:02;62.50;;;57.43;;
19830;SDS011;10076;52.008;4.708;2023-12-07T14:17:28;68.93;;;63.30;;
19830;SDS011;10076;52.008;4.708;2023-12-07T14:20:02;60.13;;;55.23;;
19830;SDS011;10076;52.008;4.708;2023-12-07T14:22:32;63.53;;;58.20;;
19830;SDS011;10076;52.008;4.708;2023-12-07T14:24:58;64.23;;;58.93;;